sensor_id;sensor_type;location;lat;lon;timestamp;temperature;humidity
83770;DHT22;73763;48.936;9.300;2023-11-21T00:00:52;7.20;94.40
83770;DHT22;73763;48.936;9.300;2023-11-21T00:03:17;7.30;94.50
83770;DHT22;73763;48.936;9.300;2023-11-21T00:05:43;7.30;94.50
83770;DHT22;73763;48.936;9.300;2023-11-21T00:08:08;7.30;94.60
83770;DHT22;73763;48.936;9.300;2023-11-21T00:10:34;7.30;94.70
83770;DHT22;73763;48.936;9.300;2023-11-21T00:13:00;7.30;94.80
83770;DHT22;73763;48.936;9.300;2023-11-21T00:15:26;7.30;94.90
83770;DHT22;73763;48.936;9.300;2023-11-21T00:17:51;7.30;94.60
83770;DHT22;73763;48.936;9.300;2023-11-21T00:20:17;7.30;94.50
83770;DHT22;73763;48.936;9.300;2023-11-21T00:22:42;7.30;94.60
83770;DHT22;73763;48.936;9.300;2023-11-21T00:25:08;7.30;94.60
83770;DHT22;73763;48.936;9.300;2023-11-21T00:27:33;7.30;94.80
83770;DHT22;73763;48.936;9.300;2023-11-21T00:29:59;7.30;94.80
83770;DHT22;73763;48.936;9.300;2023-11-21T00:32:24;7.30;94.80
83770;DHT22;73763;48.936;9.300;2023-11-21T00:34:50;7.40;94.90
83770;DHT22;73763;48.936;9.300;2023-11-21T00:37:15;7.40;94.80
83770;DHT22;73763;48.936;9.300;2023-11-21T00:39:41;7.40;94.60
83770;DHT22;73763;48.936;9.300;2023-11-21T00:42:07;7.50;94.60
83770;DHT22;73763;48.936;9.300;2023-11-21T00:44:32;7.50;94.60
83770;DHT22;73763;48.936;9.300;2023-11-21T00:46:58;7.50;94.60
83770;DHT22;73763;48.936;9.300;2023-11-21T00:49:23;7.50;94.60
83770;DHT22;73763;48.936;9.300;2023-11-21T00:51:49;7.50;94.60
83770;DHT22;73763;48.936;9.300;2023-11-21T00:54:14;7.50;94.70
83770;DHT22;73763;48.936;9.300;2023-11-21T00:56:40;7.50;94.60
83770;DHT22;73763;48.936;9.300;2023-11-21T00:59:05;7.60;94.60
83770;DHT22;73763;48.936;9.300;2023-11-21T01:01:31;7.50;94.60
83770;DHT22;73763;48.936;9.300;2023-11-21T01:03:56;7.50;94.60
83770;DHT22;73763;48.936;9.300;2023-11-21T01:06:22;7.50;94.60
83770;DHT22;73763;48.936;9.300;2023-11-21T01:08:47;7.50;94.60
83770;DHT22;73763;48.936;9.300;2023-11-21T01:11:13;7.50;94.70
83770;DHT22;73763;48.936;9.300;2023-11-21T01:13:39;7.50;94.70
83770;DHT22;73763;48.936;9.300;2023-11-21T01:16:05;7.50;94.70
83770;DHT22;73763;48.936;9.300;2023-11-21T01:18:31;7.50;94.80
83770;DHT22;73763;48.936;9.300;2023-11-21T01:20:57;7.50;94.80
83770;DHT22;73763;48.936;9.300;2023-11-21T01:23:23;7.50;94.90
83770;DHT22;73763;48.936;9.300;2023-11-21T01:25:48;7.50;94.90
83770;DHT22;73763;48.936;9.300;2023-11-21T01:28:14;7.50;94.90
83770;DHT22;73763;48.936;9.300;2023-11-21T01:30:39;7.50;94.90
83770;DHT22;73763;48.936;9.300;2023-11-21T01:33:05;7.50;94.90
83770;DHT22;73763;48.936;9.300;2023-11-21T01:35:30;7.50;95.00
83770;DHT22;73763;48.936;9.300;2023-11-21T01:37:56;7.60;95.00
83770;DHT22;73763;48.936;9.300;2023-11-21T01:40:22;7.60;95.00
83770;DHT22;73763;48.936;9.300;2023-11-21T01:42:47;7.50;95.00
83770;DHT22;73763;48.936;9.300;2023-11-21T01:45:13;7.60;95.00
83770;DHT22;73763;48.936;9.300;2023-11-21T01:47:39;7.60;94.90
83770;DHT22;73763;48.936;9.300;2023-11-21T01:50:10;7.60;95.00
83770;DHT22;73763;48.936;9.300;2023-11-21T01:52:38;7.60;95.00
83770;DHT22;73763;48.936;9.300;2023-11-21T01:55:06;7.60;95.00
83770;DHT22;73763;48.936;9.300;2023-11-21T01:57:32;7.60;95.00
83770;DHT22;73763;48.936;9.300;2023-11-21T01:59:58;7.60;95.10
83770;DHT22;73763;48.936;9.300;2023-11-21T02:02:27;7.70;95.20
83770;DHT22;73763;48.936;9.300;2023-11-21T02:04:52;7.60;95.10
83770;DHT22;73763;48.936;9.300;2023-11-21T02:07:18;7.60;95.00
83770;DHT22;73763;48.936;9.300;2023-11-21T02:09:44;7.60;95.10
83770;DHT22;73763;48.936;9.300;2023-11-21T02:12:09;7.70;95.00
83770;DHT22;73763;48.936;9.300;2023-11-21T02:14:35;7.60;94.90
83770;DHT22;73763;48.936;9.300;2023-11-21T02:17:00;7.70;94.90
83770;DHT22;73763;48.936;9.300;2023-11-21T02:19:26;7.70;95.00
83770;DHT22;73763;48.936;9.300;2023-11-21T02:21:52;7.70;95.00
83770;DHT22;73763;48.936;9.300;2023-11-21T02:24:22;7.70;95.00
83770;DHT22;73763;48.936;9.300;2023-11-21T02:26:51;7.70;95.10
83770;DHT22;73763;48.936;9.300;2023-11-21T02:29:20;7.70;95.10
83770;DHT22;73763;48.936;9.300;2023-11-21T02:31:46;7.70;95.00
83770;DHT22;73763;48.936;9.300;2023-11-21T02:34:12;7.70;95.00
83770;DHT22;73763;48.936;9.300;2023-11-21T02:36:37;7.70;95.00
83770;DHT22;73763;48.936;9.300;2023-11-21T02:39:03;7.70;94.90
83770;DHT22;73763;48.936;9.300;2023-11-21T02:41:29;7.70;94.90
83770;DHT22;73763;48.936;9.300;2023-11-21T02:43:54;7.70;95.00
83770;DHT22;73763;48.936;9.300;2023-11-21T02:46:20;7.70;95.00
83770;DHT22;73763;48.936;9.300;2023-11-21T02:48:45;7.70;94.90
83770;DHT22;73763;48.936;9.300;2023-11-21T02:51:11;7.70;95.00
83770;DHT22;73763;48.936;9.300;2023-11-21T02:53:36;7.70;95.00
83770;DHT22;73763;48.936;9.300;2023-11-21T02:56:02;7.70;95.00
83770;DHT22;73763;48.936;9.300;2023-11-21T02:58:27;7.70;95.00
83770;DHT22;73763;48.936;9.300;2023-11-21T03:00:53;7.70;95.00
83770;DHT22;73763;48.936;9.300;2023-11-21T03:03:18;7.80;94.80
83770;DHT22;73763;48.936;9.300;2023-11-21T03:05:44;7.80;94.80
83770;DHT22;73763;48.936;9.300;2023-11-21T03:08:09;7.80;94.80
83770;DHT22;73763;48.936;9.300;2023-11-21T03:10:35;7.80;94.70
83770;DHT22;73763;48.936;9.300;2023-11-21T03:13:00;7.80;94.80
83770;DHT22;73763;48.936;9.300;2023-11-21T03:15:26;7.80;94.80
83770;DHT22;73763;48.936;9.300;2023-11-21T03:17:51;7.80;94.60
83770;DHT22;73763;48.936;9.300;2023-11-21T03:20:17;7.80;94.60
83770;DHT22;73763;48.936;9.300;2023-11-21T03:22:42;7.80;94.60
83770;DHT22;73763;48.936;9.300;2023-11-21T03:25:08;7.70;94.60
83770;DHT22;73763;48.936;9.300;2023-11-21T03:27:34;7.80;94.70
83770;DHT22;73763;48.936;9.300;2023-11-21T03:29:59;7.80;94.80
83770;DHT22;73763;48.936;9.300;2023-11-21T03:32:25;7.80;94.90
83770;DHT22;73763;48.936;9.300;2023-11-21T03:34:55;7.80;94.90
83770;DHT22;73763;48.936;9.300;2023-11-21T03:37:21;7.80;94.90
83770;DHT22;73763;48.936;9.300;2023-11-21T03:39:46;7.70;95.00
83770;DHT22;73763;48.936;9.300;2023-11-21T03:42:12;7.70;95.10
83770;DHT22;73763;48.936;9.300;2023-11-21T03:44:37;7.80;95.30
83770;DHT22;73763;48.936;9.300;2023-11-21T03:47:03;7.70;95.30
83770;DHT22;73763;48.936;9.300;2023-11-21T03:49:29;7.70;95.30
83770;DHT22;73763;48.936;9.300;2023-11-21T03:51:55;7.70;95.30
83770;DHT22;73763;48.936;9.300;2023-11-21T03:54:20;7.70;95.30
83770;DHT22;73763;48.936;9.300;2023-11-21T03:56:46;7.70;95.20
83770;DHT22;73763;48.936;9.300;2023-11-21T03:59:11;7.70;95.20
83770;DHT22;73763;48.936;9.300;2023-11-21T04:01:37;7.70;95.20
83770;DHT22;73763;48.936;9.300;2023-11-21T04:04:03;7.70;95.30
83770;DHT22;73763;48.936;9.300;2023-11-21T04:06:28;7.70;95.30
83770;DHT22;73763;48.936;9.300;2023-11-21T04:08:54;7.60;95.30
83770;DHT22;73763;48.936;9.300;2023-11-21T04:11:19;7.60;95.40
83770;DHT22;73763;48.936;9.300;2023-11-21T04:13:45;7.60;95.40
83770;DHT22;73763;48.936;9.300;2023-11-21T04:16:10;7.60;95.50
83770;DHT22;73763;48.936;9.300;2023-11-21T04:18:37;7.60;95.60
83770;DHT22;73763;48.936;9.300;2023-11-21T04:21:02;7.60;95.60
83770;DHT22;73763;48.936;9.300;2023-11-21T04:23:29;7.50;95.50
83770;DHT22;73763;48.936;9.300;2023-11-21T04:25:54;7.60;95.70
83770;DHT22;73763;48.936;9.300;2023-11-21T04:28:20;7.50;95.80
83770;DHT22;73763;48.936;9.300;2023-11-21T04:30:45;7.50;95.80
83770;DHT22;73763;48.936;9.300;2023-11-21T04:33:11;7.50;95.80
83770;DHT22;73763;48.936;9.300;2023-11-21T04:35:36;7.60;95.80
83770;DHT22;73763;48.936;9.300;2023-11-21T04:38:02;7.60;95.50
83770;DHT22;73763;48.936;9.300;2023-11-21T04:40:27;7.60;95.50
83770;DHT22;73763;48.936;9.300;2023-11-21T04:42:53;7.50;95.40
83770;DHT22;73763;48.936;9.300;2023-11-21T04:45:18;7.50;95.40
83770;DHT22;73763;48.936;9.300;2023-11-21T04:47:44;7.50;95.40
83770;DHT22;73763;48.936;9.300;2023-11-21T04:50:10;7.50;95.40
83770;DHT22;73763;48.936;9.300;2023-11-21T04:52:35;7.40;95.50
83770;DHT22;73763;48.936;9.300;2023-11-21T04:55:01;7.40;95.80
83770;DHT22;73763;48.936;9.300;2023-11-21T04:57:26;7.40;95.60
83770;DHT22;73763;48.936;9.300;2023-11-21T04:59:52;7.30;95.70
83770;DHT22;73763;48.936;9.300;2023-11-21T05:02:17;7.30;95.80
83770;DHT22;73763;48.936;9.300;2023-11-21T05:04:43;7.30;95.80
83770;DHT22;73763;48.936;9.300;2023-11-21T05:07:08;7.40;95.90
83770;DHT22;73763;48.936;9.300;2023-11-21T05:09:34;7.40;96.00
83770;DHT22;73763;48.936;9.300;2023-11-21T05:11:59;7.30;96.00
83770;DHT22;73763;48.936;9.300;2023-11-21T05:14:25;7.40;96.00
83770;DHT22;73763;48.936;9.300;2023-11-21T05:16:50;7.40;96.00
83770;DHT22;73763;48.936;9.300;2023-11-21T05:19:16;7.50;96.00
83770;DHT22;73763;48.936;9.300;2023-11-21T05:21:41;7.40;96.00
83770;DHT22;73763;48.936;9.300;2023-11-21T05:24:07;7.40;96.00
83770;DHT22;73763;48.936;9.300;2023-11-21T05:26:32;7.50;96.00
83770;DHT22;73763;48.936;9.300;2023-11-21T05:28:58;7.50;96.00
83770;DHT22;73763;48.936;9.300;2023-11-21T05:31:24;7.50;96.00
83770;DHT22;73763;48.936;9.300;2023-11-21T05:33:49;7.50;96.00
83770;DHT22;73763;48.936;9.300;2023-11-21T05:36:15;7.50;96.00
83770;DHT22;73763;48.936;9.300;2023-11-21T05:38:40;7.40;96.00
83770;DHT22;73763;48.936;9.300;2023-11-21T05:41:06;7.50;96.00
83770;DHT22;73763;48.936;9.300;2023-11-21T05:43:31;7.40;95.90
83770;DHT22;73763;48.936;9.300;2023-11-21T05:45:57;7.50;96.00
83770;DHT22;73763;48.936;9.300;2023-11-21T05:48:22;7.50;96.00
83770;DHT22;73763;48.936;9.300;2023-11-21T05:50:48;7.50;95.90
83770;DHT22;73763;48.936;9.300;2023-11-21T05:53:13;7.40;95.90
83770;DHT22;73763;48.936;9.300;2023-11-21T05:55:39;7.50;96.00
83770;DHT22;73763;48.936;9.300;2023-11-21T05:58:04;7.50;96.00
83770;DHT22;73763;48.936;9.300;2023-11-21T06:00:30;7.40;96.00
83770;DHT22;73763;48.936;9.300;2023-11-21T06:02:55;7.40;96.10
83770;DHT22;73763;48.936;9.300;2023-11-21T06:05:25;7.40;96.10
83770;DHT22;73763;48.936;9.300;2023-11-21T06:07:51;7.40;96.20
83770;DHT22;73763;48.936;9.300;2023-11-21T06:10:17;7.40;96.20
83770;DHT22;73763;48.936;9.300;2023-11-21T06:12:43;7.50;96.20
83770;DHT22;73763;48.936;9.300;2023-11-21T06:15:09;7.50;96.10
83770;DHT22;73763;48.936;9.300;2023-11-21T06:17:36;7.50;96.10
83770;DHT22;73763;48.936;9.300;2023-11-21T06:20:11;7.50;96.00
83770;DHT22;73763;48.936;9.300;2023-11-21T06:22:38;7.50;96.00
83770;DHT22;73763;48.936;9.300;2023-11-21T06:25:04;7.50;96.10
83770;DHT22;73763;48.936;9.300;2023-11-21T06:27:32;7.50;96.10
83770;DHT22;73763;48.936;9.300;2023-11-21T06:29:57;7.50;96.10
83770;DHT22;73763;48.936;9.300;2023-11-21T06:32:23;7.40;95.90
83770;DHT22;73763;48.936;9.300;2023-11-21T06:34:48;7.50;96.00
83770;DHT22;73763;48.936;9.300;2023-11-21T06:37:14;7.60;96.10
83770;DHT22;73763;48.936;9.300;2023-11-21T06:39:39;7.60;95.90
83770;DHT22;73763;48.936;9.300;2023-11-21T06:42:05;7.70;95.90
83770;DHT22;73763;48.936;9.300;2023-11-21T06:44:31;7.70;95.90
83770;DHT22;73763;48.936;9.300;2023-11-21T06:46:56;7.70;95.80
83770;DHT22;73763;48.936;9.300;2023-11-21T06:49:22;7.80;95.60
83770;DHT22;73763;48.936;9.300;2023-11-21T06:51:47;7.80;95.40
83770;DHT22;73763;48.936;9.300;2023-11-21T06:54:13;7.80;95.20
83770;DHT22;73763;48.936;9.300;2023-11-21T06:56:38;7.80;95.00
83770;DHT22;73763;48.936;9.300;2023-11-21T06:59:04;7.70;95.10
83770;DHT22;73763;48.936;9.300;2023-11-21T07:01:29;7.70;95.20
83770;DHT22;73763;48.936;9.300;2023-11-21T07:03:55;7.70;95.20
83770;DHT22;73763;48.936;9.300;2023-11-21T07:06:20;7.70;95.20
83770;DHT22;73763;48.936;9.300;2023-11-21T07:08:46;7.70;95.60
83770;DHT22;73763;48.936;9.300;2023-11-21T07:11:11;7.70;95.40
83770;DHT22;73763;48.936;9.300;2023-11-21T07:13:37;7.70;95.40
83770;DHT22;73763;48.936;9.300;2023-11-21T07:16:02;7.70;95.40
83770;DHT22;73763;48.936;9.300;2023-11-21T07:18:28;7.60;95.40
83770;DHT22;73763;48.936;9.300;2023-11-21T07:20:53;7.70;95.50
83770;DHT22;73763;48.936;9.300;2023-11-21T07:23:19;7.70;95.60
83770;DHT22;73763;48.936;9.300;2023-11-21T07:25:44;7.70;95.60
83770;DHT22;73763;48.936;9.300;2023-11-21T07:28:10;7.60;95.70
83770;DHT22;73763;48.936;9.300;2023-11-21T07:30:35;7.70;95.80
83770;DHT22;73763;48.936;9.300;2023-11-21T07:33:01;7.70;95.90
83770;DHT22;73763;48.936;9.300;2023-11-21T07:35:26;7.70;95.70
83770;DHT22;73763;48.936;9.300;2023-11-21T07:37:52;7.70;95.60
83770;DHT22;73763;48.936;9.300;2023-11-21T07:40:17;7.70;95.60
83770;DHT22;73763;48.936;9.300;2023-11-21T07:42:43;7.70;95.60
83770;DHT22;73763;48.936;9.300;2023-11-21T07:45:09;7.70;95.60
83770;DHT22;73763;48.936;9.300;2023-11-21T07:47:34;7.70;95.60
83770;DHT22;73763;48.936;9.300;2023-11-21T07:50:02;7.80;95.60
83770;DHT22;73763;48.936;9.300;2023-11-21T07:52:28;7.80;95.60
83770;DHT22;73763;48.936;9.300;2023-11-21T07:54:53;7.90;95.50
83770;DHT22;73763;48.936;9.300;2023-11-21T07:57:18;7.80;95.30
83770;DHT22;73763;48.936;9.300;2023-11-21T07:59:44;7.80;95.30
83770;DHT22;73763;48.936;9.300;2023-11-21T08:02:09;7.90;95.40
83770;DHT22;73763;48.936;9.300;2023-11-21T08:04:35;7.90;95.50
83770;DHT22;73763;48.936;9.300;2023-11-21T08:07:01;8.00;95.50
83770;DHT22;73763;48.936;9.300;2023-11-21T08:09:27;8.10;95.30
83770;DHT22;73763;48.936;9.300;2023-11-21T08:11:54;8.10;95.10
83770;DHT22;73763;48.936;9.300;2023-11-21T08:14:19;8.20;95.00
83770;DHT22;73763;48.936;9.300;2023-11-21T08:16:45;8.20;94.90
83770;DHT22;73763;48.936;9.300;2023-11-21T08:19:10;8.30;94.70
83770;DHT22;73763;48.936;9.300;2023-11-21T08:21:36;8.40;94.60
83770;DHT22;73763;48.936;9.300;2023-11-21T08:24:01;8.50;94.30
83770;DHT22;73763;48.936;9.300;2023-11-21T08:26:27;8.50;93.80
83770;DHT22;73763;48.936;9.300;2023-11-21T08:28:52;8.50;93.90
83770;DHT22;73763;48.936;9.300;2023-11-21T08:31:24;8.60;94.00
83770;DHT22;73763;48.936;9.300;2023-11-21T08:33:50;8.70;94.00
83770;DHT22;73763;48.936;9.300;2023-11-21T08:36:15;8.80;93.60
83770;DHT22;73763;48.936;9.300;2023-11-21T08:38:40;8.80;93.10
83770;DHT22;73763;48.936;9.300;2023-11-21T08:41:07;8.80;93.10
83770;DHT22;73763;48.936;9.300;2023-11-21T08:43:35;8.80;93.40
83770;DHT22;73763;48.936;9.300;2023-11-21T08:46:00;8.80;93.50
83770;DHT22;73763;48.936;9.300;2023-11-21T08:48:26;8.90;92.80
83770;DHT22;73763;48.936;9.300;2023-11-21T08:50:51;9.00;92.70
83770;DHT22;73763;48.936;9.300;2023-11-21T08:53:17;9.00;92.50
83770;DHT22;73763;48.936;9.300;2023-11-21T08:55:42;9.10;92.50
83770;DHT22;73763;48.936;9.300;2023-11-21T08:58:08;9.10;92.10
83770;DHT22;73763;48.936;9.300;2023-11-21T09:00:34;9.30;92.30
83770;DHT22;73763;48.936;9.300;2023-11-21T09:03:01;9.40;92.00
83770;DHT22;73763;48.936;9.300;2023-11-21T09:05:26;9.70;91.20
83770;DHT22;73763;48.936;9.300;2023-11-21T09:07:52;9.90;90.60
83770;DHT22;73763;48.936;9.300;2023-11-21T09:10:17;10.20;90.70
83770;DHT22;73763;48.936;9.300;2023-11-21T09:12:43;10.40;89.30
83770;DHT22;73763;48.936;9.300;2023-11-21T09:15:09;11.00;87.90
83770;DHT22;73763;48.936;9.300;2023-11-21T09:17:35;11.30;84.00
83770;DHT22;73763;48.936;9.300;2023-11-21T09:20:00;11.10;84.00
83770;DHT22;73763;48.936;9.300;2023-11-21T09:22:26;10.80;85.00
83770;DHT22;73763;48.936;9.300;2023-11-21T09:24:52;10.40;87.70
83770;DHT22;73763;48.936;9.300;2023-11-21T09:27:18;10.10;90.10
83770;DHT22;73763;48.936;9.300;2023-11-21T09:29:44;10.00;90.00
83770;DHT22;73763;48.936;9.300;2023-11-21T09:32:09;10.00;90.20
83770;DHT22;73763;48.936;9.300;2023-11-21T09:34:35;10.00;90.50
83770;DHT22;73763;48.936;9.300;2023-11-21T09:37:00;9.90;90.20
83770;DHT22;73763;48.936;9.300;2023-11-21T09:39:26;10.00;90.40
83770;DHT22;73763;48.936;9.300;2023-11-21T09:42:13;10.10;90.10
83770;DHT22;73763;48.936;9.300;2023-11-21T09:47:10;9.80;90.10
83770;DHT22;73763;48.936;9.300;2023-11-21T09:49:39;9.70;90.50
83770;DHT22;73763;48.936;9.300;2023-11-21T09:52:06;9.70;91.00
83770;DHT22;73763;48.936;9.300;2023-11-21T09:54:34;9.70;91.20
83770;DHT22;73763;48.936;9.300;2023-11-21T09:57:00;9.60;91.20
83770;DHT22;73763;48.936;9.300;2023-11-21T09:59:30;9.70;91.20
83770;DHT22;73763;48.936;9.300;2023-11-21T10:01:57;9.70;91.30
83770;DHT22;73763;48.936;9.300;2023-11-21T10:04:23;9.70;91.50
83770;DHT22;73763;48.936;9.300;2023-11-21T10:06:49;9.70;91.40
83770;DHT22;73763;48.936;9.300;2023-11-21T10:09:15;9.70;91.30
83770;DHT22;73763;48.936;9.300;2023-11-21T10:11:42;9.70;91.20
83770;DHT22;73763;48.936;9.300;2023-11-21T10:14:12;9.50;91.20
83770;DHT22;73763;48.936;9.300;2023-11-21T10:16:38;9.30;91.80
83770;DHT22;73763;48.936;9.300;2023-11-21T10:19:04;9.30;92.40
83770;DHT22;73763;48.936;9.300;2023-11-21T10:21:30;9.30;92.30
83770;DHT22;73763;48.936;9.300;2023-11-21T10:23:55;9.20;92.70
83770;DHT22;73763;48.936;9.300;2023-11-21T10:26:22;9.20;93.00
83770;DHT22;73763;48.936;9.300;2023-11-21T10:28:58;9.30;93.20
83770;DHT22;73763;48.936;9.300;2023-11-21T10:31:27;9.30;93.20
83770;DHT22;73763;48.936;9.300;2023-11-21T10:33:53;9.40;93.10
83770;DHT22;73763;48.936;9.300;2023-11-21T10:36:26;9.40;92.80
83770;DHT22;73763;48.936;9.300;2023-11-21T10:38:51;9.40;92.70
83770;DHT22;73763;48.936;9.300;2023-11-21T10:41:18;9.40;92.70
83770;DHT22;73763;48.936;9.300;2023-11-21T10:43:44;9.60;92.40
83770;DHT22;73763;48.936;9.300;2023-11-21T10:46:09;9.60;92.20
83770;DHT22;73763;48.936;9.300;2023-11-21T10:48:35;9.60;91.90
83770;DHT22;73763;48.936;9.300;2023-11-21T10:51:06;9.80;91.80
83770;DHT22;73763;48.936;9.300;2023-11-21T10:53:32;9.90;91.30
83770;DHT22;73763;48.936;9.300;2023-11-21T10:56:04;10.10;90.80
83770;DHT22;73763;48.936;9.300;2023-11-21T10:58:30;10.20;90.90
83770;DHT22;73763;48.936;9.300;2023-11-21T11:00:56;10.20;90.80
83770;DHT22;73763;48.936;9.300;2023-11-21T11:03:22;10.20;90.70
83770;DHT22;73763;48.936;9.300;2023-11-21T11:05:48;10.30;90.60
83770;DHT22;73763;48.936;9.300;2023-11-21T11:08:15;10.20;90.40
83770;DHT22;73763;48.936;9.300;2023-11-21T11:10:41;10.10;90.50
83770;DHT22;73763;48.936;9.300;2023-11-21T11:13:07;10.00;90.40
83770;DHT22;73763;48.936;9.300;2023-11-21T11:15:32;10.10;90.60
83770;DHT22;73763;48.936;9.300;2023-11-21T11:17:58;10.20;90.50
83770;DHT22;73763;48.936;9.300;2023-11-21T11:20:29;10.20;90.70
83770;DHT22;73763;48.936;9.300;2023-11-21T11:28:19;9.80;91.70
83770;DHT22;73763;48.936;9.300;2023-11-21T11:31:05;9.60;92.50
83770;DHT22;73763;48.936;9.300;2023-11-21T11:33:46;9.50;92.80
83770;DHT22;73763;48.936;9.300;2023-11-21T11:36:25;9.40;93.20
83770;DHT22;73763;48.936;9.300;2023-11-21T11:38:52;9.30;93.40
83770;DHT22;73763;48.936;9.300;2023-11-21T11:41:30;9.30;94.10
83770;DHT22;73763;48.936;9.300;2023-11-21T11:43:56;9.30;94.50
83770;DHT22;73763;48.936;9.300;2023-11-21T11:46:40;9.40;94.60
83770;DHT22;73763;48.936;9.300;2023-11-21T11:49:06;9.50;94.50
83770;DHT22;73763;48.936;9.300;2023-11-21T11:51:31;9.60;94.30
83770;DHT22;73763;48.936;9.300;2023-11-21T11:53:57;9.60;94.20
83770;DHT22;73763;48.936;9.300;2023-11-21T11:58:55;9.90;93.70
83770;DHT22;73763;48.936;9.300;2023-11-21T12:01:21;9.90;93.00
83770;DHT22;73763;48.936;9.300;2023-11-21T12:06:37;10.10;92.50
83770;DHT22;73763;48.936;9.300;2023-11-21T12:09:03;10.10;92.10
83770;DHT22;73763;48.936;9.300;2023-11-21T12:11:31;10.30;92.10
83770;DHT22;73763;48.936;9.300;2023-11-21T12:13:57;10.50;92.20
83770;DHT22;73763;48.936;9.300;2023-11-21T12:16:22;10.80;92.00
83770;DHT22;73763;48.936;9.300;2023-11-21T12:18:48;11.00;91.20
83770;DHT22;73763;48.936;9.300;2023-11-21T12:21:13;11.10;90.20
83770;DHT22;73763;48.936;9.300;2023-11-21T12:23:40;11.20;90.70
83770;DHT22;73763;48.936;9.300;2023-11-21T12:26:05;11.20;89.70
83770;DHT22;73763;48.936;9.300;2023-11-21T12:28:31;11.20;89.20
83770;DHT22;73763;48.936;9.300;2023-11-21T12:30:56;10.90;89.70
83770;DHT22;73763;48.936;9.300;2023-11-21T12:33:22;10.80;90.50
83770;DHT22;73763;48.936;9.300;2023-11-21T12:35:47;10.70;90.90
83770;DHT22;73763;48.936;9.300;2023-11-21T12:38:13;10.60;91.30
83770;DHT22;73763;48.936;9.300;2023-11-21T12:40:38;10.50;91.40
83770;DHT22;73763;48.936;9.300;2023-11-21T12:43:04;10.40;91.60
83770;DHT22;73763;48.936;9.300;2023-11-21T12:45:30;10.40;91.80
83770;DHT22;73763;48.936;9.300;2023-11-21T12:48:03;10.30;91.60
83770;DHT22;73763;48.936;9.300;2023-11-21T12:50:31;10.30;91.90
83770;DHT22;73763;48.936;9.300;2023-11-21T12:53:01;10.20;91.80
83770;DHT22;73763;48.936;9.300;2023-11-21T12:55:30;10.10;92.30
83770;DHT22;73763;48.936;9.300;2023-11-21T12:57:56;10.10;92.70
83770;DHT22;73763;48.936;9.300;2023-11-21T13:00:50;10.10;92.70
83770;DHT22;73763;48.936;9.300;2023-11-21T13:03:16;10.00;92.70
83770;DHT22;73763;48.936;9.300;2023-11-21T13:05:42;10.00;92.60
83770;DHT22;73763;48.936;9.300;2023-11-21T13:08:09;10.10;92.90
83770;DHT22;73763;48.936;9.300;2023-11-21T13:10:35;10.20;92.70
83770;DHT22;73763;48.936;9.300;2023-11-21T13:13:02;10.40;92.40
83770;DHT22;73763;48.936;9.300;2023-11-21T13:15:29;10.70;92.10
83770;DHT22;73763;48.936;9.300;2023-11-21T13:17:55;11.00;92.00
83770;DHT22;73763;48.936;9.300;2023-11-21T13:20:20;11.30;91.50
83770;DHT22;73763;48.936;9.300;2023-11-21T13:22:49;11.70;91.20
83770;DHT22;73763;48.936;9.300;2023-11-21T13:25:16;11.80;90.80
83770;DHT22;73763;48.936;9.300;2023-11-21T13:27:41;12.00;90.70
83770;DHT22;73763;48.936;9.300;2023-11-21T13:30:07;12.00;89.90
83770;DHT22;73763;48.936;9.300;2023-11-21T13:32:33;11.90;89.30
83770;DHT22;73763;48.936;9.300;2023-11-21T13:34:58;11.80;89.60
83770;DHT22;73763;48.936;9.300;2023-11-21T13:37:24;11.70;90.10
83770;DHT22;73763;48.936;9.300;2023-11-21T13:39:49;11.50;89.00
83770;DHT22;73763;48.936;9.300;2023-11-21T13:42:15;11.40;89.10
83770;DHT22;73763;48.936;9.300;2023-11-21T13:44:41;11.50;87.90
83770;DHT22;73763;48.936;9.300;2023-11-21T13:47:06;11.50;87.30
83770;DHT22;73763;48.936;9.300;2023-11-21T13:49:32;11.70;88.30
83770;DHT22;73763;48.936;9.300;2023-11-21T13:51:57;12.00;85.60
83770;DHT22;73763;48.936;9.300;2023-11-21T13:54:23;12.20;84.80
83770;DHT22;73763;48.936;9.300;2023-11-21T13:56:51;12.50;83.20
83770;DHT22;73763;48.936;9.300;2023-11-21T13:59:17;12.40;82.60
83770;DHT22;73763;48.936;9.300;2023-11-21T14:01:44;12.10;82.20
83770;DHT22;73763;48.936;9.300;2023-11-21T14:04:09;11.80;82.90
83770;DHT22;73763;48.936;9.300;2023-11-21T14:06:35;11.90;82.70
83770;DHT22;73763;48.936;9.300;2023-11-21T14:09:01;12.00;82.40
83770;DHT22;73763;48.936;9.300;2023-11-21T14:11:27;12.70;81.40
83770;DHT22;73763;48.936;9.300;2023-11-21T14:13:52;13.50;78.40
83770;DHT22;73763;48.936;9.300;2023-11-21T14:16:18;13.60;76.70
83770;DHT22;73763;48.936;9.300;2023-11-21T14:18:44;13.00;76.60
83770;DHT22;73763;48.936;9.300;2023-11-21T14:21:09;12.40;78.80
83770;DHT22;73763;48.936;9.300;2023-11-21T14:23:35;11.90;81.40
83770;DHT22;73763;48.936;9.300;2023-11-21T14:26:00;11.60;83.50
83770;DHT22;73763;48.936;9.300;2023-11-21T14:28:26;11.30;84.70
83770;DHT22;73763;48.936;9.300;2023-11-21T14:30:51;11.10;85.00
83770;DHT22;73763;48.936;9.300;2023-11-21T14:33:17;10.80;86.30
83770;DHT22;73763;48.936;9.300;2023-11-21T14:35:43;10.50;86.90
83770;DHT22;73763;48.936;9.300;2023-11-21T14:38:09;10.40;87.80
83770;DHT22;73763;48.936;9.300;2023-11-21T14:40:35;10.20;89.30
83770;DHT22;73763;48.936;9.300;2023-11-21T14:43:01;10.10;89.40
83770;DHT22;73763;48.936;9.300;2023-11-21T14:45:26;10.00;90.00
83770;DHT22;73763;48.936;9.300;2023-11-21T14:47:52;9.90;90.50
83770;DHT22;73763;48.936;9.300;2023-11-21T14:50:18;9.90;91.00
83770;DHT22;73763;48.936;9.300;2023-11-21T14:52:43;9.90;91.00
83770;DHT22;73763;48.936;9.300;2023-11-21T14:55:09;9.80;91.00
83770;DHT22;73763;48.936;9.300;2023-11-21T14:57:34;9.80;91.10
83770;DHT22;73763;48.936;9.300;2023-11-21T15:00:00;9.80;91.40
83770;DHT22;73763;48.936;9.300;2023-11-21T15:02:25;9.70;91.30
83770;DHT22;73763;48.936;9.300;2023-11-21T15:04:51;9.70;91.40
83770;DHT22;73763;48.936;9.300;2023-11-21T15:07:16;9.60;91.50
83770;DHT22;73763;48.936;9.300;2023-11-21T15:09:42;9.50;91.60
83770;DHT22;73763;48.936;9.300;2023-11-21T15:12:08;9.40;92.00
83770;DHT22;73763;48.936;9.300;2023-11-21T15:14:34;9.30;92.20
83770;DHT22;73763;48.936;9.300;2023-11-21T15:17:00;9.30;92.20
83770;DHT22;73763;48.936;9.300;2023-11-21T15:19:25;9.30;92.40
83770;DHT22;73763;48.936;9.300;2023-11-21T15:21:51;9.10;92.50
83770;DHT22;73763;48.936;9.300;2023-11-21T15:24:17;9.10;92.60
83770;DHT22;73763;48.936;9.300;2023-11-21T15:26:42;9.00;92.70
83770;DHT22;73763;48.936;9.300;2023-11-21T15:29:08;8.90;92.90
83770;DHT22;73763;48.936;9.300;2023-11-21T15:31:33;8.80;92.90
83770;DHT22;73763;48.936;9.300;2023-11-21T15:33:59;8.80;93.10
83770;DHT22;73763;48.936;9.300;2023-11-21T15:36:24;8.70;93.20
83770;DHT22;73763;48.936;9.300;2023-11-21T15:38:50;8.70;93.00
83770;DHT22;73763;48.936;9.300;2023-11-21T15:41:15;8.60;93.10
83770;DHT22;73763;48.936;9.300;2023-11-21T15:43:41;8.60;93.20
83770;DHT22;73763;48.936;9.300;2023-11-21T15:46:06;8.50;93.30
83770;DHT22;73763;48.936;9.300;2023-11-21T15:48:32;8.50;93.50